createdAt,value
2022-10-10T00:03:30.640Z,14.80
2022-10-10T00:08:32.891Z,14.80
2022-10-10T00:13:35.303Z,14.80
2022-10-10T00:18:37.879Z,14.90
2022-10-10T00:23:40.007Z,14.90
2022-10-10T00:28:42.191Z,15.00
2022-10-10T00:33:45.131Z,15.00
2022-10-10T00:38:47.758Z,15.10
2022-10-10T00:44:10.262Z,15.10
2022-10-10T00:49:17.775Z,15.20
2022-10-10T00:54:22.119Z,15.20
2022-10-10T00:59:25.911Z,15.20
2022-10-10T01:04:43.109Z,15.20
2022-10-10T01:09:50.326Z,15.10
2022-10-10T01:15:05.521Z,15.20
2022-10-10T01:20:32.392Z,15.20
2022-10-10T01:26:06.297Z,15.20
2022-10-10T01:31:13.148Z,15.20
2022-10-10T01:36:28.450Z,15.20
2022-10-10T01:41:41.297Z,15.30
2022-10-10T01:46:43.519Z,15.30
2022-10-10T01:52:06.094Z,15.30
2022-10-10T01:57:26.326Z,15.40
2022-10-10T02:03:00.774Z,15.40
2022-10-10T02:08:29.182Z,15.50
2022-10-10T02:14:00.282Z,15.60
2022-10-10T02:19:06.162Z,15.70
2022-10-10T02:24:08.683Z,15.70
2022-10-10T02:29:25.104Z,15.70
2022-10-10T02:34:35.234Z,15.70
2022-10-10T02:39:42.466Z,15.70
2022-10-10T02:44:45.799Z,15.80
2022-10-10T02:49:48.322Z,15.80
2022-10-10T02:54:50.624Z,15.70
2022-10-10T02:59:52.787Z,15.70
2022-10-10T03:04:55.153Z,15.70
2022-10-10T03:09:57.374Z,15.80
2022-10-10T03:14:59.501Z,15.80
2022-10-10T03:20:01.645Z,15.70
2022-10-10T03:25:04.362Z,15.70
2022-10-10T03:30:07.195Z,15.70
2022-10-10T03:35:10.167Z,15.70
2022-10-10T03:40:12.297Z,15.70
2022-10-10T03:45:14.510Z,15.70
2022-10-10T03:50:16.984Z,15.70
2022-10-10T03:55:19.083Z,15.70
2022-10-10T04:00:21.425Z,15.60
2022-10-10T04:05:23.657Z,15.70
2022-10-10T04:10:25.941Z,15.60
2022-10-10T04:15:28.259Z,15.60
2022-10-10T04:20:30.415Z,15.60
2022-10-10T04:25:32.642Z,15.60
2022-10-10T04:30:35.221Z,15.60
2022-10-10T04:35:37.525Z,15.60
2022-10-10T04:40:39.729Z,15.60
2022-10-10T04:45:41.851Z,15.60
2022-10-10T04:50:44.044Z,15.60
2022-10-10T04:55:46.269Z,15.60
2022-10-10T05:00:53.527Z,15.60
2022-10-10T05:05:55.870Z,15.60
2022-10-10T05:10:58.242Z,15.60
2022-10-10T05:16:00.928Z,15.70
2022-10-10T05:21:03.942Z,15.70
2022-10-10T05:26:06.252Z,15.70
2022-10-10T05:31:08.533Z,15.60
2022-10-10T05:36:13.290Z,15.60
2022-10-10T05:41:15.463Z,15.60
2022-10-10T05:46:18.469Z,15.60
2022-10-10T05:51:21.174Z,15.60
2022-10-10T05:56:23.813Z,15.70
2022-10-10T06:01:26.020Z,15.70
2022-10-10T06:06:28.330Z,15.70
2022-10-10T06:11:30.698Z,15.70
2022-10-10T06:16:32.970Z,15.70
2022-10-10T06:21:35.072Z,15.70
2022-10-10T06:26:37.305Z,15.60
2022-10-10T06:31:41.296Z,15.70
2022-10-10T06:36:43.418Z,15.60
2022-10-10T06:41:45.563Z,15.60
2022-10-10T06:46:47.759Z,15.60
2022-10-10T06:51:49.958Z,15.60
2022-10-10T06:56:52.269Z,15.60
2022-10-10T07:01:54.468Z,15.60
2022-10-10T07:06:56.665Z,15.50
2022-10-10T07:11:58.939Z,15.50
2022-10-10T07:17:01.131Z,15.40
2022-10-10T07:22:03.295Z,15.30
2022-10-10T07:27:08.748Z,15.20
2022-10-10T07:32:11.297Z,15.10
2022-10-10T07:37:13.576Z,15.10
2022-10-10T07:42:15.667Z,15.10
2022-10-10T07:47:17.745Z,15.10
2022-10-10T07:52:19.820Z,15.00
2022-10-10T07:57:21.996Z,14.80
2022-10-10T08:02:24.133Z,14.70
2022-10-10T08:07:26.334Z,14.60
2022-10-10T08:12:28.957Z,14.50
2022-10-10T08:17:31.071Z,14.40
2022-10-10T08:22:33.308Z,14.40
2022-10-10T08:27:35.432Z,14.30
2022-10-10T08:32:37.611Z,14.30
2022-10-10T08:37:39.813Z,14.20
2022-10-10T08:42:52.497Z,14.20
2022-10-10T08:48:03.976Z,14.20
2022-10-10T08:53:35.770Z,14.20
2022-10-10T08:58:43.974Z,14.20
2022-10-10T09:03:51.910Z,14.20
2022-10-10T09:08:53.990Z,14.20
2022-10-10T09:14:09.300Z,14.20
2022-10-10T09:19:13.566Z,14.20
2022-10-10T09:24:22.624Z,14.20
2022-10-10T09:29:36.395Z,14.30
2022-10-10T09:34:48.871Z,14.30
2022-10-10T09:40:00.764Z,14.40
2022-10-10T09:45:03.864Z,14.30
2022-10-10T09:50:06.275Z,14.30
2022-10-10T09:55:34.939Z,14.20
2022-10-10T10:00:37.295Z,14.20
2022-10-10T10:05:41.555Z,14.20
2022-10-10T10:10:43.689Z,14.20
2022-10-10T10:15:52.295Z,14.20
2022-10-10T10:21:03.372Z,14.40
2022-10-10T10:26:14.822Z,14.50
2022-10-10T10:31:22.760Z,14.40
2022-10-10T10:37:06.086Z,14.20
2022-10-10T10:42:25.766Z,14.30
2022-10-10T10:47:40.040Z,14.60
2022-10-10T10:53:22.757Z,14.60
2022-10-10T11:05:20.843Z,14.50
2022-10-10T11:09:50.534Z,14.40
2022-10-10T11:14:55.854Z,14.50
2022-10-10T11:20:16.568Z,14.40
2022-10-10T11:25:25.856Z,14.40
2022-10-10T11:30:33.795Z,14.40
2022-10-10T11:35:46.142Z,14.40
2022-10-10T11:40:54.266Z,14.40
2022-10-10T11:46:05.633Z,14.50
2022-10-10T11:51:22.922Z,14.40
2022-10-10T11:56:39.780Z,14.50
2022-10-10T12:01:48.437Z,14.60
2022-10-10T12:06:59.686Z,14.70
2022-10-10T12:12:20.114Z,14.60
2022-10-10T12:17:27.641Z,14.70
2022-10-10T12:22:29.970Z,14.70
2022-10-10T12:28:11.111Z,14.90
2022-10-10T12:33:20.597Z,15.30
2022-10-10T12:38:27.967Z,15.40
2022-10-10T12:44:11.500Z,15.30
2022-10-10T12:49:13.550Z,15.10
2022-10-10T12:54:25.599Z,15.00
2022-10-10T12:59:27.852Z,14.80
2022-10-10T13:04:31.079Z,14.80
2022-10-10T13:09:35.814Z,14.70
2022-10-10T13:14:41.324Z,14.70
2022-10-10T13:19:43.494Z,14.80
2022-10-10T13:24:47.349Z,14.90
2022-10-10T13:29:50.052Z,14.90
2022-10-10T13:35:02.105Z,14.90
2022-10-10T13:40:04.705Z,14.80
2022-10-10T13:45:37.660Z,14.80
2022-10-10T13:50:42.533Z,14.90
2022-10-10T13:55:44.722Z,14.80
2022-10-10T14:00:58.389Z,14.70
2022-10-10T14:06:01.029Z,14.70
2022-10-10T14:11:07.638Z,14.70
2022-10-10T14:16:24.284Z,14.70
2022-10-10T14:21:26.422Z,14.80
2022-10-10T14:26:28.538Z,14.90
2022-10-10T14:31:30.764Z,14.90
2022-10-10T14:36:32.919Z,14.90
2022-10-10T14:41:35.077Z,14.90
2022-10-10T14:46:38.529Z,15.00
2022-10-10T14:51:40.665Z,14.90
2022-10-10T14:57:07.496Z,14.90
2022-10-10T15:02:08.193Z,14.80
2022-10-10T15:07:14.027Z,14.80
2022-10-10T15:12:17.071Z,14.80
2022-10-10T15:17:19.209Z,14.80
2022-10-10T15:22:21.364Z,14.80
2022-10-10T15:27:24.765Z,14.80
2022-10-10T15:32:26.883Z,14.90
2022-10-10T15:37:29.035Z,14.90
2022-10-10T15:42:31.420Z,14.90
2022-10-10T15:47:33.572Z,14.90
2022-10-10T15:52:36.552Z,14.80
2022-10-10T15:57:38.687Z,14.70
2022-10-10T16:02:41.154Z,14.60
2022-10-10T16:07:47.918Z,14.50
2022-10-10T16:12:50.748Z,14.50
2022-10-10T16:17:52.955Z,14.50
2022-10-10T16:22:55.691Z,14.50
2022-10-10T16:27:57.903Z,14.50
2022-10-10T16:33:00.322Z,14.50
2022-10-10T16:38:02.568Z,14.50
2022-10-10T16:43:05.113Z,14.60
2022-10-10T16:48:07.244Z,14.50
2022-10-10T16:53:11.063Z,14.50
2022-10-10T16:58:13.164Z,14.50
2022-10-10T17:03:15.501Z,14.40
2022-10-10T17:08:17.619Z,14.40
2022-10-10T17:13:19.803Z,14.40
2022-10-10T17:18:22.072Z,14.30
2022-10-10T17:23:24.285Z,14.30
2022-10-10T17:28:26.542Z,14.20
2022-10-10T17:33:28.679Z,14.20
2022-10-10T17:38:39.714Z,14.10
2022-10-10T17:43:42.865Z,13.90
2022-10-10T17:48:45.024Z,13.80
2022-10-10T17:53:47.088Z,13.60
2022-10-10T17:58:50.695Z,13.60
2022-10-10T18:03:52.943Z,13.50
2022-10-10T18:08:55.999Z,13.50
2022-10-10T18:14:01.471Z,13.40
2022-10-10T18:19:05.660Z,13.30
2022-10-10T18:24:08.143Z,13.30
2022-10-10T18:29:10.636Z,13.20
2022-10-10T18:34:12.802Z,13.20
2022-10-10T18:39:16.674Z,13.10
2022-10-10T18:44:19.345Z,13.10
2022-10-10T18:49:21.613Z,13.00
2022-10-10T18:54:23.718Z,12.90
2022-10-10T18:59:25.811Z,12.80
2022-10-10T19:04:28.145Z,12.70
2022-10-10T19:09:30.222Z,12.60
2022-10-10T19:14:32.293Z,12.60
2022-10-10T19:19:34.448Z,12.50
2022-10-10T19:24:36.628Z,12.40
2022-10-10T19:29:38.751Z,12.30
2022-10-10T19:34:40.884Z,12.20
2022-10-10T19:39:43.029Z,12.10
2022-10-10T19:44:47.473Z,12.00
2022-10-10T19:49:49.601Z,11.80
2022-10-10T19:54:53.448Z,11.70
2022-10-10T19:59:55.545Z,11.60
2022-10-10T20:04:57.633Z,11.60
2022-10-10T20:09:59.680Z,11.50
2022-10-10T20:15:02.029Z,11.40
2022-10-10T20:20:05.369Z,11.30
2022-10-10T20:25:07.883Z,11.10
2022-10-10T20:30:10.416Z,11.10
2022-10-10T20:35:14.147Z,11.00
2022-10-10T20:40:16.778Z,11.00
2022-10-10T20:45:18.815Z,10.90
2022-10-10T20:50:20.889Z,10.80
2022-10-10T20:55:22.954Z,10.70
2022-10-10T21:00:25.267Z,10.70
2022-10-10T21:05:27.437Z,10.60
2022-10-10T21:10:30.215Z,10.60
2022-10-10T21:15:32.396Z,10.50
2022-10-10T21:20:34.637Z,10.60
2022-10-10T21:25:39.873Z,10.60
2022-10-10T21:30:52.658Z,10.40
2022-10-10T21:35:56.256Z,10.40
2022-10-10T21:41:05.335Z,10.40
2022-10-10T21:46:12.575Z,10.40
2022-10-10T21:51:16.044Z,10.20
2022-10-10T21:56:18.553Z,10.10
2022-10-10T22:01:23.844Z,10.00
2022-10-10T22:06:26.375Z,9.90
2022-10-10T22:11:31.054Z,9.90
2022-10-10T22:16:34.444Z,9.70
2022-10-10T22:21:36.949Z,9.60
2022-10-10T22:26:39.238Z,9.60
2022-10-10T22:31:41.419Z,9.60
2022-10-10T22:36:43.755Z,9.70
2022-10-10T22:41:46.229Z,9.80
2022-10-10T22:46:48.949Z,9.60
2022-10-10T22:51:51.515Z,9.60
2022-10-10T22:56:53.783Z,9.40
2022-10-10T23:01:56.016Z,9.30
2022-10-10T23:06:58.145Z,9.30
2022-10-10T23:12:00.303Z,9.20
2022-10-10T23:17:02.432Z,9.30
2022-10-10T23:22:04.619Z,9.30
2022-10-10T23:27:06.837Z,9.20
2022-10-10T23:32:08.969Z,9.00
2022-10-10T23:37:11.112Z,8.90
2022-10-10T23:42:13.343Z,8.80
2022-10-10T23:47:15.596Z,8.70
2022-10-10T23:52:17.739Z,8.80
2022-10-10T23:57:32.696Z,8.80
